createdAt,value
2022-08-22T00:00:00.418Z,36.2
2022-08-22T00:01:00.385Z,36.0
2022-08-22T00:02:00.362Z,36.0
2022-08-22T00:03:04.652Z,39.6
2022-08-22T00:04:00.348Z,36.1
2022-08-22T00:05:00.439Z,36.1
2022-08-22T00:06:00.303Z,35.9
2022-08-22T00:07:00.406Z,35.5
2022-08-22T00:08:00.494Z,35.4
2022-08-22T00:09:00.322Z,35.4
2022-08-22T00:10:00.298Z,35.5
2022-08-22T00:11:00.314Z,35.6
2022-08-22T00:12:00.351Z,35.7
2022-08-22T00:13:00.389Z,35.7
2022-08-22T00:14:01.484Z,35.6
2022-08-22T00:15:00.409Z,35.5
2022-08-22T00:16:00.290Z,35.6
2022-08-22T00:17:00.317Z,35.5
2022-08-22T00:18:00.446Z,35.4
2022-08-22T00:19:00.371Z,35.2
2022-08-22T00:20:00.321Z,35.1
2022-08-22T00:21:00.303Z,35.3
2022-08-22T00:22:00.293Z,35.3
2022-08-22T00:23:00.320Z,35.4
2022-08-22T00:24:00.309Z,35.5
2022-08-22T00:25:00.489Z,35.4
2022-08-22T00:26:00.307Z,35.4
2022-08-22T00:27:00.280Z,35.5
2022-08-22T00:28:00.645Z,35.5
2022-08-22T00:29:00.364Z,35.5
2022-08-22T00:30:00.370Z,35.6
2022-08-22T00:31:00.432Z,35.5
2022-08-22T00:32:00.294Z,35.7
2022-08-22T00:33:00.296Z,35.8
2022-08-22T00:34:00.379Z,36.0
2022-08-22T00:35:00.327Z,36.1
2022-08-22T00:36:00.299Z,36.1
2022-08-22T00:37:00.283Z,36.0
2022-08-22T00:38:00.372Z,36.0
2022-08-22T00:39:00.321Z,36.0
2022-08-22T00:40:03.162Z,35.9
2022-08-22T00:41:00.287Z,35.9
2022-08-22T00:42:00.322Z,36.0
2022-08-22T00:43:00.364Z,36.0
2022-08-22T00:44:00.359Z,35.9
2022-08-22T00:45:00.450Z,35.9
2022-08-22T00:46:00.385Z,36.1
2022-08-22T00:47:00.309Z,35.8
2022-08-22T00:48:00.471Z,35.6
2022-08-22T00:49:00.295Z,35.6
2022-08-22T00:50:00.312Z,35.7
2022-08-22T00:51:00.391Z,35.7
2022-08-22T00:52:00.319Z,35.7
2022-08-22T00:53:00.307Z,35.5
2022-08-22T00:54:00.295Z,35.6
2022-08-22T00:55:00.303Z,35.7
2022-08-22T00:56:00.281Z,35.8
2022-08-22T00:57:00.394Z,35.8
2022-08-22T00:58:00.406Z,35.8
2022-08-22T00:59:00.308Z,35.6
2022-08-22T01:00:00.332Z,35.6
2022-08-22T01:01:00.556Z,35.6
2022-08-22T01:02:00.314Z,35.5
2022-08-22T01:03:00.459Z,35.4
2022-08-22T01:04:00.290Z,35.3
2022-08-22T01:05:00.295Z,35.3
2022-08-22T01:06:00.275Z,35.3
2022-08-22T01:07:00.306Z,35.3
2022-08-22T01:08:00.358Z,35.6
2022-08-22T01:09:00.391Z,35.4
2022-08-22T01:10:00.296Z,35.3
2022-08-22T01:11:00.288Z,35.3
2022-08-22T01:12:00.293Z,35.3
2022-08-22T01:13:00.280Z,35.4
2022-08-22T01:14:00.326Z,35.4
2022-08-22T01:15:00.400Z,35.4
2022-08-22T01:16:00.402Z,35.5
2022-08-22T01:17:00.316Z,35.4
2022-08-22T01:18:00.515Z,35.5
2022-08-22T01:19:00.308Z,35.3
2022-08-22T01:20:00.310Z,35.3
2022-08-22T01:21:00.382Z,35.4
2022-08-22T01:22:00.287Z,35.3
2022-08-22T01:23:00.299Z,35.5
2022-08-22T01:24:00.300Z,35.7
2022-08-22T01:25:00.321Z,35.8
2022-08-22T01:26:00.468Z,36.0
2022-08-22T01:27:00.328Z,35.6
2022-08-22T01:28:00.413Z,35.5
2022-08-22T01:29:00.404Z,35.6
2022-08-22T01:30:00.392Z,35.4
2022-08-22T01:31:00.386Z,35.4
2022-08-22T01:32:00.443Z,35.3
2022-08-22T01:33:00.373Z,35.4
2022-08-22T01:34:00.323Z,35.4
2022-08-22T01:35:00.384Z,35.5
2022-08-22T01:36:00.292Z,35.5
2022-08-22T01:37:00.576Z,35.5
2022-08-22T01:38:00.301Z,35.4
2022-08-22T01:39:00.304Z,35.5
2022-08-22T01:40:00.430Z,35.6
2022-08-22T01:41:00.295Z,35.6
2022-08-22T01:42:00.302Z,35.7
2022-08-22T01:43:00.392Z,35.6
2022-08-22T01:44:01.027Z,35.6
2022-08-22T01:45:00.275Z,35.8
2022-08-22T01:46:00.418Z,35.7
2022-08-22T01:47:00.354Z,35.6
2022-08-22T01:48:00.451Z,35.7
2022-08-22T01:49:00.380Z,35.7
2022-08-22T01:50:00.343Z,35.7
2022-08-22T01:51:00.326Z,35.7
2022-08-22T01:52:00.337Z,35.7
2022-08-22T01:53:00.296Z,35.7
2022-08-22T01:54:00.370Z,35.7
2022-08-22T01:55:00.390Z,35.8
2022-08-22T01:56:00.329Z,35.9
2022-08-22T01:57:00.320Z,36.2
2022-08-22T01:58:00.787Z,36.2
2022-08-22T01:59:01.862Z,36.3
2022-08-22T02:00:00.351Z,36.3
2022-08-22T02:01:00.332Z,36.3
2022-08-22T02:02:00.393Z,36.4
2022-08-22T02:03:00.295Z,36.4
2022-08-22T02:04:00.418Z,36.5
2022-08-22T02:05:00.315Z,36.6
2022-08-22T02:06:00.270Z,36.6
2022-08-22T02:07:00.384Z,36.7
2022-08-22T02:08:00.529Z,36.6
2022-08-22T02:09:00.272Z,36.6
2022-08-22T02:10:00.309Z,36.7
2022-08-22T02:11:00.295Z,36.6
2022-08-22T02:12:00.344Z,36.6
2022-08-22T02:13:00.478Z,36.6
2022-08-22T02:14:00.317Z,36.6
2022-08-22T02:15:00.345Z,36.6
2022-08-22T02:16:00.332Z,36.5
2022-08-22T02:17:00.394Z,36.6
2022-08-22T02:18:01.135Z,36.5
2022-08-22T02:19:00.457Z,36.4
2022-08-22T02:20:00.290Z,36.6
2022-08-22T02:21:00.300Z,36.9
2022-08-22T02:22:00.299Z,37.0
2022-08-22T02:23:00.284Z,36.9
2022-08-22T02:24:00.337Z,36.9
2022-08-22T02:25:00.402Z,36.7
2022-08-22T02:26:00.295Z,36.5
2022-08-22T02:27:00.312Z,36.4
2022-08-22T02:28:00.522Z,36.1
2022-08-22T02:29:00.563Z,36.0
2022-08-22T02:30:00.315Z,35.9
2022-08-22T02:31:00.285Z,35.8
2022-08-22T02:32:00.317Z,35.6
2022-08-22T02:33:00.379Z,35.8
2022-08-22T02:34:00.289Z,35.8
2022-08-22T02:35:00.380Z,35.8
2022-08-22T02:36:00.304Z,35.6
2022-08-22T02:37:00.351Z,35.2
2022-08-22T02:38:00.400Z,34.9
2022-08-22T02:39:00.333Z,34.5
2022-08-22T02:40:00.414Z,34.5
2022-08-22T02:41:00.346Z,34.2
2022-08-22T02:42:00.391Z,34.1
2022-08-22T02:43:00.324Z,34.0
2022-08-22T02:44:00.805Z,33.8
2022-08-22T02:45:00.426Z,33.8
2022-08-22T02:46:00.323Z,33.7
2022-08-22T02:47:00.352Z,33.5
2022-08-22T02:48:00.649Z,33.5
2022-08-22T02:49:00.390Z,33.5
2022-08-22T02:50:00.293Z,33.4
2022-08-22T02:51:00.343Z,33.3
2022-08-22T02:52:00.311Z,33.2
2022-08-22T02:53:00.315Z,33.1
2022-08-22T02:54:00.402Z,33.0
2022-08-22T02:55:00.370Z,33.0
2022-08-22T02:56:00.296Z,32.8
2022-08-22T02:57:00.301Z,32.6
2022-08-22T02:58:00.501Z,32.5
2022-08-22T02:59:00.327Z,32.5
2022-08-22T03:00:00.397Z,32.5
2022-08-22T03:01:00.333Z,32.5
2022-08-22T03:02:00.321Z,32.5
2022-08-22T03:03:00.313Z,32.4
2022-08-22T03:04:00.374Z,32.5
2022-08-22T03:05:00.279Z,32.4
2022-08-22T03:06:01.675Z,32.3
2022-08-22T03:07:00.320Z,32.2
2022-08-22T03:08:00.411Z,32.2
2022-08-22T03:09:00.299Z,32.2
2022-08-22T03:10:00.386Z,32.2
2022-08-22T03:11:00.296Z,32.1
2022-08-22T03:12:00.316Z,32.0
2022-08-22T03:13:00.282Z,32.0
2022-08-22T03:14:00.298Z,32.0
2022-08-22T03:15:00.319Z,32.1
2022-08-22T03:16:00.429Z,32.1
2022-08-22T03:17:00.319Z,32.0
2022-08-22T03:18:00.532Z,32.0
2022-08-22T03:19:00.414Z,32.0
2022-08-22T03:20:00.321Z,32.0
2022-08-22T03:21:00.319Z,32.0
2022-08-22T03:22:00.387Z,31.9
2022-08-22T03:23:00.358Z,31.6
2022-08-22T03:24:00.291Z,31.5
2022-08-22T03:25:00.348Z,31.4
2022-08-22T03:26:00.453Z,31.2
2022-08-22T03:27:00.302Z,31.2
2022-08-22T03:28:00.511Z,31.2
2022-08-22T03:29:00.479Z,31.1
2022-08-22T03:30:00.363Z,31.1
2022-08-22T03:31:00.343Z,31.0
2022-08-22T03:32:00.497Z,31.1
2022-08-22T03:33:00.368Z,31.0
2022-08-22T03:34:00.384Z,30.9
2022-08-22T03:35:00.276Z,30.9
2022-08-22T03:36:00.326Z,31.1
2022-08-22T03:37:00.308Z,31.0
2022-08-22T03:38:00.508Z,30.9
2022-08-22T03:39:00.294Z,30.8
2022-08-22T03:40:00.491Z,30.7
2022-08-22T03:41:00.309Z,30.6
2022-08-22T03:42:00.294Z,30.3
2022-08-22T03:43:00.287Z,30.1
2022-08-22T03:44:00.379Z,30.1
2022-08-22T03:45:00.306Z,29.9
2022-08-22T03:46:00.299Z,29.8
2022-08-22T03:47:00.310Z,29.7
2022-08-22T03:48:00.483Z,29.6
2022-08-22T03:49:00.392Z,29.5
2022-08-22T03:50:00.640Z,29.4
2022-08-22T03:51:00.277Z,29.3
2022-08-22T03:52:00.299Z,29.3
2022-08-22T03:53:00.319Z,29.1
2022-08-22T03:54:00.299Z,29.1
2022-08-22T03:55:00.292Z,28.9
2022-08-22T03:56:00.389Z,28.9
2022-08-22T03:57:00.612Z,28.8
2022-08-22T03:58:00.447Z,28.6
2022-08-22T03:59:00.296Z,28.6
2022-08-22T04:00:00.323Z,28.5
2022-08-22T04:01:00.462Z,28.5
2022-08-22T04:02:00.396Z,28.4
2022-08-22T04:03:00.468Z,28.2
2022-08-22T04:04:00.365Z,28.1
2022-08-22T04:05:00.318Z,27.9
2022-08-22T04:06:00.383Z,27.9
2022-08-22T04:07:00.335Z,27.9
2022-08-22T04:08:00.656Z,27.7
2022-08-22T04:09:00.305Z,27.6
2022-08-22T04:10:00.342Z,27.5
2022-08-22T04:11:02.617Z,27.4
2022-08-22T04:12:00.300Z,27.2
2022-08-22T04:13:00.296Z,26.9
2022-08-22T04:14:00.384Z,26.9
2022-08-22T04:15:00.288Z,26.8
2022-08-22T04:16:00.298Z,26.6
2022-08-22T04:17:00.322Z,26.5
2022-08-22T04:18:00.490Z,26.5
2022-08-22T04:19:00.397Z,26.5
2022-08-22T04:20:00.395Z,26.5
2022-08-22T04:21:00.298Z,26.4
2022-08-22T04:22:00.317Z,26.4
2022-08-22T04:23:00.285Z,26.3
2022-08-22T04:24:00.313Z,26.3
2022-08-22T04:25:03.599Z,26.1
2022-08-22T04:26:00.300Z,26.1
2022-08-22T04:27:00.300Z,26.0
2022-08-22T04:28:00.352Z,26.1
2022-08-22T04:29:00.306Z,26.1
2022-08-22T04:30:00.334Z,26.0
2022-08-22T04:31:00.392Z,26.0
2022-08-22T04:32:00.313Z,25.9
2022-08-22T04:33:00.364Z,25.9
2022-08-22T04:34:00.302Z,25.8
2022-08-22T04:35:00.307Z,25.8
2022-08-22T04:36:00.323Z,25.8
2022-08-22T04:37:00.411Z,25.8
2022-08-22T04:38:00.601Z,25.7
2022-08-22T04:39:00.336Z,25.6
2022-08-22T04:40:00.405Z,25.5
2022-08-22T04:41:03.927Z,25.4
2022-08-22T04:42:16.014Z,25.4
2022-08-22T04:43:00.434Z,25.4
2022-08-22T04:44:00.289Z,25.4
2022-08-22T04:45:00.374Z,25.3
2022-08-22T04:46:00.315Z,25.3
2022-08-22T04:47:00.295Z,25.3
2022-08-22T04:48:00.579Z,25.3
2022-08-22T04:49:00.417Z,25.1
2022-08-22T04:50:00.287Z,25.1
2022-08-22T04:51:00.609Z,25.1
2022-08-22T04:52:00.303Z,25.1
2022-08-22T04:53:00.311Z,25.1
2022-08-22T04:54:00.287Z,24.6
2022-08-22T04:55:00.291Z,23.3
2022-08-22T04:56:03.013Z,21.6
2022-08-22T04:57:00.385Z,19.9
2022-08-22T04:58:00.507Z,18.3
2022-08-22T04:59:00.302Z,16.3
2022-08-22T05:00:00.404Z,15.6
2022-08-22T05:01:00.306Z,15.1
2022-08-22T05:02:00.500Z,14.5
2022-08-22T05:03:00.372Z,13.8
2022-08-22T05:04:00.422Z,13.2
2022-08-22T05:05:00.310Z,12.6
2022-08-22T05:06:00.349Z,12.2
2022-08-22T05:07:00.338Z,11.8
2022-08-22T05:08:00.745Z,11.0
2022-08-22T05:09:00.309Z,10.3
2022-08-22T05:10:00.326Z,10.2
2022-08-22T05:11:00.329Z,10.0
2022-08-22T05:12:00.284Z,9.4
2022-08-22T05:13:00.282Z,9.5
2022-08-22T05:14:00.402Z,8.7
2022-08-22T05:15:00.366Z,8.6
2022-08-22T05:16:00.308Z,8.4
2022-08-22T05:17:00.284Z,8.1
2022-08-22T05:18:00.481Z,7.8
2022-08-22T05:19:00.345Z,7.9
2022-08-22T05:20:00.441Z,7.0
2022-08-22T05:21:00.305Z,7.3
2022-08-22T05:22:00.405Z,7.2
2022-08-22T05:23:00.436Z,6.8
2022-08-22T05:24:00.328Z,6.8
2022-08-22T05:25:00.310Z,6.4
2022-08-22T05:26:00.310Z,6.7
2022-08-22T05:27:00.401Z,6.5
2022-08-22T05:28:00.453Z,6.6
2022-08-22T05:29:00.309Z,6.5
2022-08-22T05:30:00.329Z,6.3
2022-08-22T05:31:00.287Z,6.2
2022-08-22T05:32:00.297Z,6.1
2022-08-22T05:33:00.415Z,6.0
2022-08-22T05:34:00.402Z,6.0
2022-08-22T05:35:00.326Z,5.6
2022-08-22T05:36:00.305Z,5.6
2022-08-22T05:37:00.287Z,5.6
2022-08-22T05:38:00.478Z,5.6
2022-08-22T05:39:00.352Z,4.8
2022-08-22T05:40:00.421Z,4.8
2022-08-22T05:41:00.306Z,5.1
2022-08-22T05:42:00.332Z,5.3
2022-08-22T05:43:00.368Z,5.2
2022-08-22T05:44:00.466Z,5.3
2022-08-22T05:45:00.318Z,4.9
2022-08-22T05:46:00.355Z,4.7
2022-08-22T05:47:00.305Z,4.8
2022-08-22T05:48:00.507Z,4.7
2022-08-22T05:49:00.383Z,4.4
2022-08-22T05:50:00.306Z,4.2
2022-08-22T05:51:00.301Z,4.5
2022-08-22T05:52:00.309Z,4.4
2022-08-22T05:53:00.277Z,4.4
2022-08-22T05:54:00.382Z,4.4
2022-08-22T05:55:00.318Z,4.3
2022-08-22T05:56:00.307Z,4.0
2022-08-22T05:57:00.405Z,4.0
2022-08-22T05:58:00.317Z,4.1
2022-08-22T05:59:00.321Z,4.1
2022-08-22T06:00:00.298Z,4.2
2022-08-22T06:01:00.361Z,4.1
2022-08-22T06:02:00.429Z,4.1
2022-08-22T06:03:00.463Z,4.1
2022-08-22T06:04:00.333Z,4.8
2022-08-22T06:05:00.301Z,4.9
2022-08-22T06:06:00.287Z,4.9
2022-08-22T06:07:00.325Z,6.0
2022-08-22T06:08:00.495Z,7.2
2022-08-22T06:09:00.777Z,8.4
2022-08-22T06:10:00.320Z,9.3
2022-08-22T06:11:00.316Z,10.0
2022-08-22T06:12:00.301Z,8.9
2022-08-22T06:13:00.381Z,8.1
2022-08-22T06:14:00.319Z,8.0
2022-08-22T06:15:00.436Z,7.3
2022-08-22T06:16:00.375Z,6.8
2022-08-22T06:17:00.293Z,6.6
2022-08-22T06:18:00.655Z,5.9
2022-08-22T06:19:00.310Z,5.6
2022-08-22T06:20:00.315Z,5.5
2022-08-22T06:21:00.387Z,5.2
2022-08-22T06:22:00.282Z,4.8
2022-08-22T06:23:00.294Z,4.6
2022-08-22T06:24:00.308Z,4.4
2022-08-22T06:25:00.313Z,4.2
2022-08-22T06:26:00.390Z,4.0
2022-08-22T06:27:00.304Z,3.7
2022-08-22T06:28:00.474Z,3.7
2022-08-22T06:29:00.310Z,3.4
2022-08-22T06:30:00.287Z,3.7
2022-08-22T06:31:00.366Z,3.6
2022-08-22T06:32:00.371Z,3.7
2022-08-22T06:33:01.090Z,3.6
2022-08-22T06:34:00.268Z,3.8
2022-08-22T06:35:00.308Z,4.0
2022-08-22T06:36:00.281Z,4.2
2022-08-22T06:37:00.288Z,4.2
2022-08-22T06:38:00.406Z,4.2
2022-08-22T06:39:00.357Z,4.1
2022-08-22T06:40:00.446Z,4.2
2022-08-22T06:41:00.387Z,3.8
2022-08-22T06:42:00.407Z,3.9
2022-08-22T06:43:00.306Z,4.3
2022-08-22T06:44:00.336Z,4.4
2022-08-22T06:45:00.315Z,4.1
2022-08-22T06:46:00.300Z,3.9
2022-08-22T06:47:00.505Z,3.7
2022-08-22T06:48:00.882Z,3.6
2022-08-22T06:49:00.424Z,3.7
2022-08-22T06:50:00.399Z,3.9
2022-08-22T06:51:00.265Z,4.0
2022-08-22T06:52:00.288Z,4.0
2022-08-22T06:53:00.338Z,3.8
2022-08-22T06:54:00.273Z,3.6
2022-08-22T06:55:00.302Z,3.4
2022-08-22T06:56:00.242Z,3.2
2022-08-22T06:57:00.287Z,3.4
2022-08-22T06:58:00.520Z,3.3
2022-08-22T06:59:00.348Z,3.2
2022-08-22T07:00:00.277Z,3.3
2022-08-22T07:01:11.438Z,3.6
2022-08-22T07:02:00.339Z,3.6
2022-08-22T07:03:00.271Z,3.6
2022-08-22T07:04:00.383Z,3.7
2022-08-22T07:05:00.464Z,3.8
2022-08-22T07:06:00.296Z,3.8
2022-08-22T07:07:00.397Z,3.7
2022-08-22T07:08:00.558Z,3.4
2022-08-22T07:09:00.541Z,3.0
2022-08-22T07:10:00.335Z,3.1
2022-08-22T07:11:00.301Z,3.2
2022-08-22T07:12:00.320Z,3.1
2022-08-22T07:13:00.298Z,3.2
2022-08-22T07:14:00.323Z,3.0
2022-08-22T07:15:00.399Z,3.1
2022-08-22T07:16:00.314Z,3.3
2022-08-22T07:17:00.342Z,3.4
2022-08-22T07:18:00.442Z,3.7
2022-08-22T07:19:00.368Z,3.8
2022-08-22T07:20:00.432Z,3.8
2022-08-22T07:21:00.505Z,3.8
2022-08-22T07:22:00.462Z,3.7
2022-08-22T07:23:00.311Z,3.9
2022-08-22T07:24:00.314Z,3.8
2022-08-22T07:25:00.525Z,3.7
2022-08-22T07:26:00.346Z,3.7
2022-08-22T07:27:00.494Z,3.5
2022-08-22T07:28:00.563Z,3.4
2022-08-22T07:29:00.309Z,3.3
2022-08-22T07:30:00.526Z,3.2
2022-08-22T07:31:00.314Z,3.0
2022-08-22T07:32:00.319Z,2.9
2022-08-22T07:33:19.013Z,2.9
2022-08-22T07:34:00.315Z,2.9
2022-08-22T07:35:00.349Z,2.7
2022-08-22T07:36:00.416Z,2.9
2022-08-22T07:37:00.404Z,2.8
2022-08-22T07:38:00.514Z,2.5
2022-08-22T07:39:00.299Z,2.6
2022-08-22T07:40:00.385Z,2.7
2022-08-22T07:41:00.323Z,2.8
2022-08-22T07:42:00.433Z,3.1
2022-08-22T07:43:00.299Z,3.2
2022-08-22T07:44:00.312Z,3.2
2022-08-22T07:45:00.330Z,3.1
2022-08-22T07:46:00.432Z,3.0
2022-08-22T07:47:00.326Z,2.9
2022-08-22T07:48:00.582Z,3.1
2022-08-22T07:49:09.151Z,2.9
2022-08-22T07:50:00.348Z,3.3
2022-08-22T07:51:00.315Z,3.3
2022-08-22T07:52:00.482Z,3.5
2022-08-22T07:53:00.316Z,3.6
2022-08-22T07:54:01.047Z,3.5
2022-08-22T07:55:00.321Z,3.5
2022-08-22T07:56:00.316Z,3.4
2022-08-22T07:57:00.311Z,3.1
2022-08-22T07:58:00.606Z,3.1
2022-08-22T07:59:00.354Z,3.1
2022-08-22T08:00:00.346Z,3.2
2022-08-22T08:01:00.483Z,3.2
2022-08-22T08:02:00.325Z,3.3
2022-08-22T08:03:00.317Z,3.2
2022-08-22T08:04:00.311Z,3.4
2022-08-22T08:05:00.383Z,3.5
2022-08-22T08:06:00.309Z,3.3
2022-08-22T08:07:00.439Z,3.5
2022-08-22T08:08:00.465Z,3.8
2022-08-22T08:09:00.329Z,3.9
2022-08-22T08:10:00.309Z,4.0
2022-08-22T08:11:00.350Z,4.0
2022-08-22T08:12:00.338Z,3.7
2022-08-22T08:13:02.419Z,3.8
2022-08-22T08:14:00.320Z,3.8
2022-08-22T08:15:00.318Z,4.3
2022-08-22T08:16:00.295Z,3.9
2022-08-22T08:17:00.321Z,3.9
2022-08-22T08:18:00.394Z,3.8
2022-08-22T08:19:00.407Z,3.8
2022-08-22T08:20:00.322Z,3.7
2022-08-22T08:21:00.407Z,3.8
2022-08-22T08:22:00.292Z,3.8
2022-08-22T08:23:00.492Z,3.7
2022-08-22T08:24:00.307Z,4.0
2022-08-22T08:25:00.388Z,4.1
2022-08-22T08:26:00.670Z,4.0
2022-08-22T08:27:00.328Z,3.8
2022-08-22T08:28:00.440Z,3.9
2022-08-22T08:29:00.355Z,4.4
2022-08-22T08:30:00.324Z,4.4
2022-08-22T08:31:00.290Z,4.4
2022-08-22T08:32:00.528Z,4.3
2022-08-22T08:33:25.334Z,4.4
2022-08-22T08:34:00.406Z,4.5
2022-08-22T08:35:00.308Z,4.5
2022-08-22T08:36:03.310Z,4.8
2022-08-22T08:37:00.313Z,5.1
2022-08-22T08:38:00.618Z,5.4
2022-08-22T08:39:00.309Z,5.5
2022-08-22T08:40:00.472Z,5.5
2022-08-22T08:41:00.298Z,5.4
2022-08-22T08:42:00.335Z,5.2
2022-08-22T08:43:00.308Z,5.1
2022-08-22T08:44:00.370Z,4.9
2022-08-22T08:45:00.307Z,4.8
2022-08-22T08:46:00.326Z,4.8
2022-08-22T08:47:00.437Z,4.8
2022-08-22T08:48:00.572Z,4.6
2022-08-22T08:49:00.313Z,5.0
2022-08-22T08:50:00.428Z,5.0
2022-08-22T08:51:01.998Z,5.3
2022-08-22T08:52:00.307Z,5.5
2022-08-22T08:53:00.319Z,5.8
2022-08-22T08:54:00.370Z,6.1
2022-08-22T08:55:00.294Z,6.2
2022-08-22T08:56:00.405Z,6.0
2022-08-22T08:57:00.313Z,6.1
2022-08-22T08:58:06.554Z,6.3
2022-08-22T08:59:00.294Z,6.2
2022-08-22T09:00:00.318Z,6.4
2022-08-22T09:01:00.398Z,6.5
2022-08-22T09:02:00.422Z,6.8
2022-08-22T09:03:00.318Z,7.2
2022-08-22T09:04:00.315Z,7.1
2022-08-22T09:05:00.340Z,7.2
2022-08-22T09:06:00.460Z,7.5
2022-08-22T09:07:01.312Z,7.7
2022-08-22T09:08:00.546Z,7.9
2022-08-22T09:09:00.333Z,7.6
2022-08-22T09:10:00.328Z,7.7
2022-08-22T09:11:00.327Z,7.6
2022-08-22T09:12:00.338Z,7.8
2022-08-22T09:13:12.196Z,7.5
2022-08-22T09:14:00.361Z,7.8
2022-08-22T09:15:00.301Z,7.7
2022-08-22T09:16:05.280Z,7.6
2022-08-22T09:17:00.391Z,7.9
2022-08-22T09:18:00.649Z,8.1
2022-08-22T09:19:00.419Z,8.1
2022-08-22T09:20:00.383Z,8.1
2022-08-22T09:21:00.392Z,8.2
2022-08-22T09:22:00.326Z,8.4
2022-08-22T09:23:00.328Z,8.5
2022-08-22T09:24:00.295Z,8.5
2022-08-22T09:25:00.412Z,8.3
2022-08-22T09:26:00.325Z,8.8
2022-08-22T09:27:00.307Z,8.8
2022-08-22T09:28:00.461Z,9.1
2022-08-22T09:29:00.320Z,9.3
2022-08-22T09:30:00.308Z,9.8
2022-08-22T09:31:00.399Z,9.8
2022-08-22T09:32:00.387Z,10.5
2022-08-22T09:33:00.363Z,10.8
2022-08-22T09:34:00.331Z,10.7
2022-08-22T09:35:00.318Z,11.2
2022-08-22T09:36:01.004Z,11.4
2022-08-22T09:37:00.457Z,11.7
2022-08-22T09:38:00.761Z,11.2
2022-08-22T09:39:00.323Z,11.3
2022-08-22T09:40:00.392Z,11.3
2022-08-22T09:41:00.354Z,11.3
2022-08-22T09:42:00.310Z,11.3
2022-08-22T09:43:00.548Z,11.2
2022-08-22T09:44:00.410Z,11.5
2022-08-22T09:45:00.342Z,11.5
2022-08-22T09:46:02.046Z,11.7
2022-08-22T09:47:00.374Z,12.3
2022-08-22T09:48:07.336Z,12.5
2022-08-22T09:49:00.401Z,12.4
2022-08-22T09:50:00.402Z,12.3
2022-08-22T09:51:13.631Z,12.3
2022-08-22T09:52:03.660Z,12.3
2022-08-22T09:53:00.647Z,12.6
2022-08-22T09:54:00.315Z,12.8
2022-08-22T09:55:00.308Z,13.1
2022-08-22T09:56:00.387Z,12.5
2022-08-22T09:57:00.299Z,12.3
2022-08-22T09:58:00.321Z,12.4
2022-08-22T09:59:00.345Z,12.3
2022-08-22T10:00:00.320Z,12.1
2022-08-22T10:01:00.443Z,12.3
2022-08-22T10:02:00.426Z,12.4
2022-08-22T10:03:02.013Z,12.3
2022-08-22T10:04:00.357Z,12.2
2022-08-22T10:05:00.371Z,12.0
2022-08-22T10:06:00.413Z,12.0
2022-08-22T10:07:00.373Z,12.3
2022-08-22T10:08:00.466Z,12.4
2022-08-22T10:09:00.290Z,12.1
2022-08-22T10:10:00.760Z,12.3
2022-08-22T10:11:00.318Z,12.2
2022-08-22T10:12:00.309Z,11.9
2022-08-22T10:13:00.439Z,12.1
2022-08-22T10:14:01.518Z,12.2
2022-08-22T10:15:00.305Z,12.1
2022-08-22T10:16:00.330Z,12.3
2022-08-22T10:17:00.327Z,12.4
2022-08-22T10:18:00.309Z,12.5
2022-08-22T10:19:00.801Z,12.5
2022-08-22T10:20:00.481Z,12.5
2022-08-22T10:21:00.396Z,12.6
2022-08-22T10:22:00.338Z,12.8
2022-08-22T10:23:00.524Z,13.4
2022-08-22T10:24:00.384Z,13.2
2022-08-22T10:25:00.309Z,13.1
2022-08-22T10:26:00.306Z,12.9
2022-08-22T10:27:00.356Z,12.8
2022-08-22T10:28:00.309Z,12.9
2022-08-22T10:29:00.322Z,12.8
2022-08-22T10:30:00.401Z,12.8
2022-08-22T10:31:00.355Z,12.5
2022-08-22T10:32:01.385Z,12.6
2022-08-22T10:33:00.682Z,12.7
2022-08-22T10:34:00.290Z,12.6
2022-08-22T10:35:00.329Z,12.4
2022-08-22T10:36:00.595Z,12.2
2022-08-22T10:37:00.314Z,12.0
2022-08-22T10:38:00.324Z,11.8
2022-08-22T10:39:00.304Z,12.1
2022-08-22T10:40:00.428Z,12.1
2022-08-22T10:41:00.309Z,12.1
2022-08-22T10:42:00.394Z,12.2
2022-08-22T10:43:00.435Z,12.5
2022-08-22T10:44:01.588Z,12.1
2022-08-22T10:45:00.314Z,12.3
2022-08-22T10:46:00.304Z,12.4
2022-08-22T10:47:00.416Z,12.6
2022-08-22T10:48:00.313Z,12.5
2022-08-22T10:49:00.311Z,12.5
2022-08-22T10:50:00.331Z,12.4
2022-08-22T10:51:00.387Z,12.7
2022-08-22T10:52:09.698Z,11.9
2022-08-22T10:53:00.535Z,12.3
2022-08-22T10:54:00.305Z,12.5
2022-08-22T10:55:00.325Z,12.6
2022-08-22T10:56:00.311Z,12.3
2022-08-22T10:57:00.300Z,12.3
2022-08-22T10:58:00.401Z,12.4
2022-08-22T10:59:00.527Z,12.4
2022-08-22T11:00:00.375Z,12.4
2022-08-22T11:01:00.511Z,12.4
2022-08-22T11:02:00.454Z,12.5
2022-08-22T11:03:00.557Z,12.1
2022-08-22T11:04:00.306Z,12.3
2022-08-22T11:05:00.289Z,12.3
2022-08-22T11:06:00.466Z,12.5
2022-08-22T11:07:00.344Z,12.6
2022-08-22T11:08:00.368Z,12.7
2022-08-22T11:09:00.401Z,12.4
2022-08-22T11:10:00.310Z,12.6
2022-08-22T11:11:00.319Z,12.4
2022-08-22T11:12:00.393Z,12.5
2022-08-22T11:13:00.521Z,12.5
2022-08-22T11:14:00.332Z,12.5
2022-08-22T11:15:00.398Z,12.5
2022-08-22T11:16:00.327Z,12.7
2022-08-22T11:17:00.695Z,12.8
2022-08-22T11:18:00.330Z,13.4
2022-08-22T11:19:02.522Z,13.0
2022-08-22T11:20:00.483Z,13.1
2022-08-22T11:21:00.417Z,13.2
2022-08-22T11:22:00.322Z,13.3
2022-08-22T11:23:00.497Z,13.2
2022-08-22T11:24:00.456Z,13.3
2022-08-22T11:25:04.237Z,13.2
2022-08-22T11:26:00.291Z,13.3
2022-08-22T11:27:00.282Z,13.2
2022-08-22T11:28:00.294Z,13.1
2022-08-22T11:29:07.810Z,13.2
2022-08-22T11:30:00.404Z,13.2
2022-08-22T11:31:00.315Z,13.1
2022-08-22T11:32:00.392Z,13.4
2022-08-22T11:33:00.785Z,13.5
2022-08-22T11:34:00.499Z,13.6
2022-08-22T11:35:00.465Z,13.5
2022-08-22T11:36:00.445Z,13.5
2022-08-22T11:37:00.483Z,13.6
2022-08-22T11:38:00.349Z,13.5
2022-08-22T11:39:01.176Z,13.7
2022-08-22T11:40:00.477Z,13.8
2022-08-22T11:41:00.294Z,13.7
2022-08-22T11:42:00.341Z,13.6
2022-08-22T11:43:01.043Z,13.6
2022-08-22T11:44:00.404Z,13.7
2022-08-22T11:45:00.302Z,13.8
2022-08-22T11:46:00.387Z,13.5
2022-08-22T11:47:00.397Z,13.6
2022-08-22T11:48:00.426Z,13.7
2022-08-22T11:49:00.303Z,13.5
2022-08-22T11:50:00.303Z,13.4
2022-08-22T11:51:00.364Z,13.5
2022-08-22T11:52:00.428Z,13.6
2022-08-22T11:53:04.336Z,13.7
2022-08-22T11:54:00.297Z,13.7
2022-08-22T11:55:00.300Z,14.1
2022-08-22T11:56:00.387Z,14.2
2022-08-22T11:57:00.284Z,13.9
2022-08-22T11:58:00.304Z,13.9
2022-08-22T11:59:00.307Z,14.1
2022-08-22T12:00:00.324Z,14.2
2022-08-22T12:01:00.318Z,14.3
2022-08-22T12:02:00.471Z,14.4
2022-08-22T12:03:00.559Z,14.8
2022-08-22T12:04:00.288Z,14.3
2022-08-22T12:05:00.377Z,14.3
2022-08-22T12:06:00.392Z,14.2
2022-08-22T12:07:00.378Z,13.8
2022-08-22T12:08:00.374Z,13.9
2022-08-22T12:09:00.375Z,13.4
2022-08-22T12:10:00.288Z,13.4
2022-08-22T12:11:00.483Z,13.4
2022-08-22T12:12:00.411Z,13.6
2022-08-22T12:13:00.749Z,13.7
2022-08-22T12:14:06.072Z,13.6
2022-08-22T12:15:00.311Z,13.4
2022-08-22T12:16:00.319Z,13.5
2022-08-22T12:17:00.452Z,13.7
2022-08-22T12:18:01.870Z,13.7
2022-08-22T12:19:00.340Z,13.6
2022-08-22T12:20:16.505Z,13.9
2022-08-22T12:21:00.382Z,13.9
2022-08-22T12:22:00.330Z,14.1
2022-08-22T12:23:00.425Z,13.8
2022-08-22T12:24:00.404Z,13.8
2022-08-22T12:25:02.940Z,13.1
2022-08-22T12:26:00.311Z,13.3
2022-08-22T12:27:00.284Z,13.6
2022-08-22T12:28:00.396Z,13.8
2022-08-22T12:29:00.297Z,13.7
2022-08-22T12:30:00.302Z,13.8
2022-08-22T12:31:00.302Z,13.6
2022-08-22T12:32:00.583Z,13.5
2022-08-22T12:33:00.620Z,13.5
2022-08-22T12:34:00.291Z,13.6
2022-08-22T12:35:00.327Z,13.9
2022-08-22T12:36:00.301Z,14.0
2022-08-22T12:37:00.411Z,13.9
2022-08-22T12:38:00.354Z,13.7
2022-08-22T12:39:00.380Z,13.7
2022-08-22T12:40:00.405Z,13.8
2022-08-22T12:41:00.394Z,13.6
2022-08-22T12:42:00.377Z,13.4
2022-08-22T12:43:00.332Z,13.6
2022-08-22T12:44:00.379Z,13.3
2022-08-22T12:45:00.330Z,13.6
2022-08-22T12:46:00.407Z,13.4
2022-08-22T12:47:00.382Z,13.4
2022-08-22T12:48:00.469Z,13.3
2022-08-22T12:49:00.313Z,13.3
2022-08-22T12:50:00.324Z,13.3
2022-08-22T12:51:01.153Z,13.1
2022-08-22T12:52:04.262Z,13.6
2022-08-22T12:53:00.589Z,13.3
2022-08-22T12:54:00.316Z,13.5
2022-08-22T12:55:00.295Z,13.2
2022-08-22T12:56:00.308Z,13.7
2022-08-22T12:57:00.308Z,13.4
2022-08-22T12:58:00.545Z,13.4
2022-08-22T12:59:00.295Z,13.2
2022-08-22T13:00:00.333Z,13.1
2022-08-22T13:01:00.338Z,12.9
2022-08-22T13:02:00.446Z,12.8
2022-08-22T13:03:00.561Z,12.6
2022-08-22T13:04:00.336Z,12.8
2022-08-22T13:05:00.291Z,12.9
2022-08-22T13:06:00.651Z,12.9
2022-08-22T13:07:00.381Z,12.8
2022-08-22T13:08:04.321Z,13.2
2022-08-22T13:09:00.403Z,13.0
2022-08-22T13:10:00.345Z,12.9
2022-08-22T13:11:00.316Z,12.8
2022-08-22T13:12:00.331Z,13.1
2022-08-22T13:13:00.330Z,13.0
2022-08-22T13:14:00.401Z,12.7
2022-08-22T13:15:00.287Z,13.1
2022-08-22T13:16:00.314Z,12.9
2022-08-22T13:17:00.290Z,12.8
2022-08-22T13:18:18.995Z,12.6
2022-08-22T13:19:00.305Z,12.8
2022-08-22T13:20:00.381Z,12.8
2022-08-22T13:21:00.328Z,13.0
2022-08-22T13:22:00.376Z,13.0
2022-08-22T13:23:00.330Z,12.7
2022-08-22T13:24:00.319Z,12.7
2022-08-22T13:25:00.422Z,12.8
2022-08-22T13:26:00.315Z,12.9
2022-08-22T13:27:00.355Z,12.8